sensor_id;sensor_type;location;lat;lon;timestamp;pressure;altitude;pressure_sealevel;temperature;humidity
14120;BME280;7138;49.246;9.100;2023-07-13T00:00:41;98650.31;;;21.88;nan
14120;BME280;7138;49.246;9.100;2023-07-13T00:03:07;98656.41;;;21.89;nan
14120;BME280;7138;49.246;9.100;2023-07-13T00:05:34;98653.97;;;21.84;nan
14120;BME280;7138;49.246;9.100;2023-07-13T00:08:00;98642.72;;;21.80;nan
14120;BME280;7138;49.246;9.100;2023-07-13T00:10:26;98640.19;;;21.79;nan
14120;BME280;7138;49.246;9.100;2023-07-13T00:12:52;98639.19;;;21.82;nan
14120;BME280;7138;49.246;9.100;2023-07-13T00:15:24;98627.03;;;21.79;nan
14120;BME280;7138;49.246;9.100;2023-07-13T00:17:52;98634.34;;;21.72;nan
14120;BME280;7138;49.246;9.100;2023-07-13T00:20:19;98639.75;;;21.69;nan
14120;BME280;7138;49.246;9.100;2023-07-13T00:22:49;98646.84;;;21.67;nan
14120;BME280;7138;49.246;9.100;2023-07-13T00:25:15;98645.16;;;21.66;nan
14120;BME280;7138;49.246;9.100;2023-07-13T00:27:42;98647.06;;;21.63;nan
14120;BME280;7138;49.246;9.100;2023-07-13T00:30:08;98640.19;;;21.60;nan
14120;BME280;7138;49.246;9.100;2023-07-13T00:32:34;98635.97;;;21.56;nan
14120;BME280;7138;49.246;9.100;2023-07-13T00:35:01;98637.97;;;21.51;nan
14120;BME280;7138;49.246;9.100;2023-07-13T00:37:28;98625.09;;;21.45;nan
14120;BME280;7138;49.246;9.100;2023-07-13T00:39:56;98621.66;;;21.43;nan
14120;BME280;7138;49.246;9.100;2023-07-13T00:42:21;98632.44;;;21.37;nan
14120;BME280;7138;49.246;9.100;2023-07-13T00:48:35;98634.22;;;21.18;nan
14120;BME280;7138;49.246;9.100;2023-07-13T00:51:03;98635.22;;;21.15;nan
14120;BME280;7138;49.246;9.100;2023-07-13T00:53:32;98636.25;;;21.11;nan
14120;BME280;7138;49.246;9.100;2023-07-13T00:56:00;98636.41;;;21.08;nan
14120;BME280;7138;49.246;9.100;2023-07-13T00:58:28;98639.91;;;21.07;nan
14120;BME280;7138;49.246;9.100;2023-07-13T01:00:54;98632.22;;;21.03;nan
14120;BME280;7138;49.246;9.100;2023-07-13T01:03:23;98627.25;;;20.97;nan
14120;BME280;7138;49.246;9.100;2023-07-13T01:05:50;98623.16;;;20.90;nan
14120;BME280;7138;49.246;9.100;2023-07-13T01:08:19;98631.72;;;20.75;nan
14120;BME280;7138;49.246;9.100;2023-07-13T01:10:52;98630.97;;;20.71;nan
14120;BME280;7138;49.246;9.100;2023-07-13T01:13:18;98628.44;;;20.69;nan
14120;BME280;7138;49.246;9.100;2023-07-13T01:15:48;98637.19;;;20.70;nan
14120;BME280;7138;49.246;9.100;2023-07-13T01:18:18;98641.56;;;20.69;nan
14120;BME280;7138;49.246;9.100;2023-07-13T01:20:52;98640.72;;;20.69;nan
14120;BME280;7138;49.246;9.100;2023-07-13T01:23:19;98644.19;;;20.69;nan
14120;BME280;7138;49.246;9.100;2023-07-13T01:25:45;98632.22;;;20.62;nan
14120;BME280;7138;49.246;9.100;2023-07-13T01:28:11;98644.13;;;20.71;nan
14120;BME280;7138;49.246;9.100;2023-07-13T01:30:38;98642.56;;;20.67;nan
14120;BME280;7138;49.246;9.100;2023-07-13T01:33:06;98643.34;;;20.69;nan
14120;BME280;7138;49.246;9.100;2023-07-13T01:35:32;98648.47;;;20.72;nan
14120;BME280;7138;49.246;9.100;2023-07-13T01:38:00;98644.00;;;20.74;nan
14120;BME280;7138;49.246;9.100;2023-07-13T01:40:28;98647.47;;;20.75;nan
14120;BME280;7138;49.246;9.100;2023-07-13T01:42:53;98644.06;;;20.73;nan
14120;BME280;7138;49.246;9.100;2023-07-13T01:45:19;98647.59;;;20.71;nan
14120;BME280;7138;49.246;9.100;2023-07-13T01:47:45;98639.66;;;20.73;nan
14120;BME280;7138;49.246;9.100;2023-07-13T01:50:11;98645.75;;;20.73;nan
14120;BME280;7138;49.246;9.100;2023-07-13T01:52:37;98653.59;;;20.75;nan
14120;BME280;7138;49.246;9.100;2023-07-13T01:55:07;98652.72;;;20.75;nan
14120;BME280;7138;49.246;9.100;2023-07-13T01:57:33;98649.47;;;20.69;nan
14120;BME280;7138;49.246;9.100;2023-07-13T01:59:59;98644.19;;;20.69;nan
14120;BME280;7138;49.246;9.100;2023-07-13T02:02:24;98653.84;;;20.69;nan
14120;BME280;7138;49.246;9.100;2023-07-13T02:04:50;98615.38;;;20.46;nan
14120;BME280;7138;49.246;9.100;2023-07-13T02:07:16;98654.75;;;20.68;nan
14120;BME280;7138;49.246;9.100;2023-07-13T02:09:42;98656.53;;;20.67;nan
14120;BME280;7138;49.246;9.100;2023-07-13T02:12:10;98653.00;;;20.68;nan
14120;BME280;7138;49.246;9.100;2023-07-13T02:14:35;98653.84;;;20.69;nan
14120;BME280;7138;49.246;9.100;2023-07-13T02:17:01;98656.53;;;20.67;nan
14120;BME280;7138;49.246;9.100;2023-07-13T02:19:27;98655.75;;;20.65;nan
14120;BME280;7138;49.246;9.100;2023-07-13T02:21:53;98657.84;;;20.57;nan
14120;BME280;7138;49.246;9.100;2023-07-13T02:24:19;98657.16;;;20.52;nan
14120;BME280;7138;49.246;9.100;2023-07-13T02:26:47;98652.03;;;20.49;nan
14120;BME280;7138;49.246;9.100;2023-07-13T02:29:14;98656.50;;;20.47;nan
14120;BME280;7138;49.246;9.100;2023-07-13T02:31:40;98648.69;;;20.46;nan
14120;BME280;7138;49.246;9.100;2023-07-13T02:34:06;98646.31;;;20.40;nan
14120;BME280;7138;49.246;9.100;2023-07-13T02:36:32;98657.78;;;20.37;nan
14120;BME280;7138;49.246;9.100;2023-07-13T02:39:02;98664.94;;;20.34;nan
14120;BME280;7138;49.246;9.100;2023-07-13T02:41:29;98658.25;;;20.25;nan
14120;BME280;7138;49.246;9.100;2023-07-13T02:43:55;98647.03;;;20.22;nan
14120;BME280;7138;49.246;9.100;2023-07-13T02:46:29;98654.25;;;20.16;nan
14120;BME280;7138;49.246;9.100;2023-07-13T02:48:55;98660.72;;;20.08;nan
14120;BME280;7138;49.246;9.100;2023-07-13T02:51:21;98651.47;;;19.98;nan
14120;BME280;7138;49.246;9.100;2023-07-13T02:53:47;98661.97;;;19.98;nan
14120;BME280;7138;49.246;9.100;2023-07-13T02:56:13;98657.03;;;19.90;nan
14120;BME280;7138;49.246;9.100;2023-07-13T02:58:39;98661.44;;;19.90;nan
14120;BME280;7138;49.246;9.100;2023-07-13T03:01:07;98665.16;;;19.84;nan
14120;BME280;7138;49.246;9.100;2023-07-13T03:03:36;98664.41;;;19.81;nan
14120;BME280;7138;49.246;9.100;2023-07-13T03:06:04;98668.88;;;19.79;nan
14120;BME280;7138;49.246;9.100;2023-07-13T03:08:31;98656.09;;;19.70;nan
14120;BME280;7138;49.246;9.100;2023-07-13T03:11:02;98656.94;;;19.70;nan
14120;BME280;7138;49.246;9.100;2023-07-13T03:13:28;98660.66;;;19.64;nan
14120;BME280;7138;49.246;9.100;2023-07-13T03:15:54;98661.69;;;19.60;nan
14120;BME280;7138;49.246;9.100;2023-07-13T03:18:20;98642.75;;;19.52;nan
14120;BME280;7138;49.246;9.100;2023-07-13T03:20:50;98667.66;;;19.64;nan
14120;BME280;7138;49.246;9.100;2023-07-13T03:23:16;98661.59;;;19.63;nan
14120;BME280;7138;49.246;9.100;2023-07-13T03:25:42;98666.84;;;19.63;nan
14120;BME280;7138;49.246;9.100;2023-07-13T03:28:08;98667.63;;;19.66;nan
14120;BME280;7138;49.246;9.100;2023-07-13T03:30:34;98669.44;;;19.63;nan
14120;BME280;7138;49.246;9.100;2023-07-13T03:32:59;98677.13;;;19.68;nan
14120;BME280;7138;49.246;9.100;2023-07-13T03:35:25;98679.75;;;19.68;nan
14120;BME280;7138;49.246;9.100;2023-07-13T03:37:52;98679.84;;;19.67;nan
14120;BME280;7138;49.246;9.100;2023-07-13T03:40:18;98681.63;;;19.64;nan
14120;BME280;7138;49.246;9.100;2023-07-13T03:42:44;98686.13;;;19.61;nan
14120;BME280;7138;49.246;9.100;2023-07-13T03:45:10;98700.97;;;19.62;nan
14120;BME280;7138;49.246;9.100;2023-07-13T03:47:36;98694.94;;;19.60;nan
14120;BME280;7138;49.246;9.100;2023-07-13T03:50:02;98693.22;;;19.59;nan
14120;BME280;7138;49.246;9.100;2023-07-13T03:52:29;98689.84;;;19.55;nan
14120;BME280;7138;49.246;9.100;2023-07-13T03:54:56;98695.97;;;19.56;nan
14120;BME280;7138;49.246;9.100;2023-07-13T03:57:22;98702.97;;;19.55;nan
14120;BME280;7138;49.246;9.100;2023-07-13T03:59:48;98704.81;;;19.53;nan
14120;BME280;7138;49.246;9.100;2023-07-13T04:02:14;98705.78;;;19.51;nan
14120;BME280;7138;49.246;9.100;2023-07-13T04:04:40;98708.41;;;19.51;nan
14120;BME280;7138;49.246;9.100;2023-07-13T04:07:06;98712.72;;;19.52;nan
14120;BME280;7138;49.246;9.100;2023-07-13T04:09:33;98710.94;;;19.52;nan
14120;BME280;7138;49.246;9.100;2023-07-13T04:12:01;98711.91;;;19.50;nan
14120;BME280;7138;49.246;9.100;2023-07-13T04:14:27;98710.16;;;19.50;nan
14120;BME280;7138;49.246;9.100;2023-07-13T04:16:53;98717.97;;;19.52;nan
14120;BME280;7138;49.246;9.100;2023-07-13T04:19:20;98721.41;;;19.54;nan
14120;BME280;7138;49.246;9.100;2023-07-13T04:21:46;98726.53;;;19.57;nan
14120;BME280;7138;49.246;9.100;2023-07-13T04:24:12;98728.31;;;19.56;nan
14120;BME280;7138;49.246;9.100;2023-07-13T04:26:38;98735.28;;;19.57;nan
14120;BME280;7138;49.246;9.100;2023-07-13T04:29:07;98739.59;;;19.58;nan
14120;BME280;7138;49.246;9.100;2023-07-13T04:31:33;98742.09;;;19.61;nan
14120;BME280;7138;49.246;9.100;2023-07-13T04:33:59;98747.34;;;19.61;nan
14120;BME280;7138;49.246;9.100;2023-07-13T04:36:25;98748.28;;;19.60;nan
14120;BME280;7138;49.246;9.100;2023-07-13T04:38:55;98748.16;;;19.63;nan
14120;BME280;7138;49.246;9.100;2023-07-13T04:41:21;98745.66;;;19.60;nan
14120;BME280;7138;49.246;9.100;2023-07-13T04:43:48;98746.47;;;19.61;nan
14120;BME280;7138;49.246;9.100;2023-07-13T04:46:17;98747.22;;;19.64;nan
14120;BME280;7138;49.246;9.100;2023-07-13T04:48:46;98749.84;;;19.64;nan
14120;BME280;7138;49.246;9.100;2023-07-13T04:51:12;98748.06;;;19.67;nan
14120;BME280;7138;49.246;9.100;2023-07-13T04:53:38;98750.59;;;19.68;nan
14120;BME280;7138;49.246;9.100;2023-07-13T04:56:04;98754.78;;;19.74;nan
14120;BME280;7138;49.246;9.100;2023-07-13T04:58:30;98752.91;;;19.77;nan
14120;BME280;7138;49.246;9.100;2023-07-13T05:01:00;98749.41;;;19.77;nan
14120;BME280;7138;49.246;9.100;2023-07-13T05:03:28;98757.16;;;19.80;nan
14120;BME280;7138;49.246;9.100;2023-07-13T05:05:59;98750.94;;;19.82;nan
14120;BME280;7138;49.246;9.100;2023-07-13T05:08:25;98753.56;;;19.82;nan
14120;BME280;7138;49.246;9.100;2023-07-13T05:10:52;98751.66;;;19.87;nan
14120;BME280;7138;49.246;9.100;2023-07-13T05:13:18;98761.81;;;19.96;nan
14120;BME280;7138;49.246;9.100;2023-07-13T05:15:44;98759.75;;;20.04;nan
14120;BME280;7138;49.246;9.100;2023-07-13T05:18:11;98759.38;;;20.13;nan
14120;BME280;7138;49.246;9.100;2023-07-13T05:20:38;98761.56;;;20.26;nan
14120;BME280;7138;49.246;9.100;2023-07-13T05:23:04;98760.88;;;20.44;nan
14120;BME280;7138;49.246;9.100;2023-07-13T05:25:30;98770.50;;;20.87;nan
14120;BME280;7138;49.246;9.100;2023-07-13T05:27:56;98766.59;;;21.39;nan
14120;BME280;7138;49.246;9.100;2023-07-13T05:30:22;98771.75;;;22.01;nan
14120;BME280;7138;49.246;9.100;2023-07-13T05:32:47;98769.50;;;22.85;nan
14120;BME280;7138;49.246;9.100;2023-07-13T05:35:13;98765.22;;;23.85;nan
14120;BME280;7138;49.246;9.100;2023-07-13T05:37:40;98769.31;;;24.86;nan
14120;BME280;7138;49.246;9.100;2023-07-13T05:40:10;98768.50;;;25.60;nan
14120;BME280;7138;49.246;9.100;2023-07-13T05:42:36;98773.38;;;25.95;nan
14120;BME280;7138;49.246;9.100;2023-07-13T05:45:03;98776.50;;;26.02;nan
14120;BME280;7138;49.246;9.100;2023-07-13T05:47:29;98781.78;;;25.88;nan
14120;BME280;7138;49.246;9.100;2023-07-13T05:49:55;98778.72;;;25.66;nan
14120;BME280;7138;49.246;9.100;2023-07-13T05:52:21;98781.38;;;25.36;nan
14120;BME280;7138;49.246;9.100;2023-07-13T05:54:48;98786.25;;;25.14;nan
14120;BME280;7138;49.246;9.100;2023-07-13T05:57:14;98784.66;;;24.95;nan
14120;BME280;7138;49.246;9.100;2023-07-13T05:59:39;98790.78;;;24.96;nan
14120;BME280;7138;49.246;9.100;2023-07-13T06:02:08;98782.59;;;25.00;nan
14120;BME280;7138;49.246;9.100;2023-07-13T06:04:34;98782.59;;;25.00;nan
14120;BME280;7138;49.246;9.100;2023-07-13T06:07:00;98787.50;;;24.92;nan
14120;BME280;7138;49.246;9.100;2023-07-13T06:09:25;98776.22;;;24.73;nan
14120;BME280;7138;49.246;9.100;2023-07-13T06:11:53;98789.25;;;24.76;nan
14120;BME280;7138;49.246;9.100;2023-07-13T06:14:18;98794.81;;;24.87;nan
14120;BME280;7138;49.246;9.100;2023-07-13T06:16:44;98799.22;;;25.02;nan
14120;BME280;7138;49.246;9.100;2023-07-13T06:19:11;98796.56;;;25.18;nan
14120;BME280;7138;49.246;9.100;2023-07-13T06:21:36;98800.97;;;25.33;nan
14120;BME280;7138;49.246;9.100;2023-07-13T06:24:03;98803.81;;;25.44;nan
14120;BME280;7138;49.246;9.100;2023-07-13T06:26:29;98809.31;;;25.71;nan
14120;BME280;7138;49.246;9.100;2023-07-13T06:28:56;98807.44;;;26.30;nan
14120;BME280;7138;49.246;9.100;2023-07-13T06:31:22;98810.38;;;26.94;nan
14120;BME280;7138;49.246;9.100;2023-07-13T06:33:48;98816.53;;;27.61;nan
14120;BME280;7138;49.246;9.100;2023-07-13T06:36:15;98809.78;;;28.33;nan
14120;BME280;7138;49.246;9.100;2023-07-13T06:38:41;98813.38;;;28.93;nan
14120;BME280;7138;49.246;9.100;2023-07-13T06:41:07;98814.50;;;29.25;nan
14120;BME280;7138;49.246;9.100;2023-07-13T06:43:34;98824.19;;;29.50;nan
14120;BME280;7138;49.246;9.100;2023-07-13T06:46:01;98822.53;;;29.71;nan
14120;BME280;7138;49.246;9.100;2023-07-13T06:48:27;98827.09;;;29.82;nan
14120;BME280;7138;49.246;9.100;2023-07-13T06:50:54;98825.53;;;29.67;nan
14120;BME280;7138;49.246;9.100;2023-07-13T06:53:20;98834.59;;;29.53;nan
14120;BME280;7138;49.246;9.100;2023-07-13T06:55:47;98831.75;;;29.33;nan
14120;BME280;7138;49.246;9.100;2023-07-13T06:58:15;98827.59;;;29.05;nan
14120;BME280;7138;49.246;9.100;2023-07-13T07:00:41;98833.09;;;28.91;nan
14120;BME280;7138;49.246;9.100;2023-07-13T07:03:08;98839.41;;;28.77;nan
14120;BME280;7138;49.246;9.100;2023-07-13T07:05:34;98837.72;;;28.63;nan
14120;BME280;7138;49.246;9.100;2023-07-13T07:08:00;98840.84;;;28.45;nan
14120;BME280;7138;49.246;9.100;2023-07-13T07:10:31;98846.91;;;28.34;nan
14120;BME280;7138;49.246;9.100;2023-07-13T07:12:57;98837.78;;;28.26;nan
14120;BME280;7138;49.246;9.100;2023-07-13T07:15:23;98838.19;;;28.19;nan
14120;BME280;7138;49.246;9.100;2023-07-13T07:17:49;98838.41;;;28.16;nan
14120;BME280;7138;49.246;9.100;2023-07-13T07:20:16;98848.41;;;28.13;nan
14120;BME280;7138;49.246;9.100;2023-07-13T07:22:42;98846.34;;;28.04;nan
14120;BME280;7138;49.246;9.100;2023-07-13T07:25:08;98841.50;;;28.10;nan
14120;BME280;7138;49.246;9.100;2023-07-13T07:27:34;98842.88;;;28.16;nan
14120;BME280;7138;49.246;9.100;2023-07-13T07:30:00;98838.63;;;28.26;nan
14120;BME280;7138;49.246;9.100;2023-07-13T07:32:26;98835.41;;;28.34;nan
14120;BME280;7138;49.246;9.100;2023-07-13T07:34:52;98848.28;;;28.40;nan
14120;BME280;7138;49.246;9.100;2023-07-13T07:37:19;98852.94;;;28.49;nan
14120;BME280;7138;49.246;9.100;2023-07-13T07:39:45;98851.34;;;28.59;nan
14120;BME280;7138;49.246;9.100;2023-07-13T07:42:10;98847.97;;;28.69;nan
14120;BME280;7138;49.246;9.100;2023-07-13T07:44:38;98850.91;;;28.78;nan
14120;BME280;7138;49.246;9.100;2023-07-13T07:47:04;98857.31;;;28.75;nan
14120;BME280;7138;49.246;9.100;2023-07-13T07:49:30;98842.06;;;28.77;nan
14120;BME280;7138;49.246;9.100;2023-07-13T07:51:56;98850.13;;;28.88;nan
14120;BME280;7138;49.246;9.100;2023-07-13T07:54:23;98848.63;;;28.97;nan
14120;BME280;7138;49.246;9.100;2023-07-13T07:56:49;98842.72;;;29.04;nan
14120;BME280;7138;49.246;9.100;2023-07-13T07:59:15;98843.75;;;29.14;nan
14120;BME280;7138;49.246;9.100;2023-07-13T08:01:41;98842.31;;;29.21;nan
14120;BME280;7138;49.246;9.100;2023-07-13T08:04:06;98850.72;;;29.28;nan
14120;BME280;7138;49.246;9.100;2023-07-13T08:06:32;98848.06;;;29.28;nan
14120;BME280;7138;49.246;9.100;2023-07-13T08:08:59;98835.59;;;29.28;nan
14120;BME280;7138;49.246;9.100;2023-07-13T08:11:27;98846.81;;;29.45;nan
14120;BME280;7138;49.246;9.100;2023-07-13T08:13:53;98838.47;;;29.49;nan
14120;BME280;7138;49.246;9.100;2023-07-13T08:16:18;98852.19;;;29.56;nan
14120;BME280;7138;49.246;9.100;2023-07-13T08:18:44;98851.84;;;29.60;nan
14120;BME280;7138;49.246;9.100;2023-07-13T08:21:10;98857.44;;;29.68;nan
14120;BME280;7138;49.246;9.100;2023-07-13T08:23:36;98803.41;;;29.32;nan
14120;BME280;7138;49.246;9.100;2023-07-13T08:26:03;98857.91;;;29.62;nan
14120;BME280;7138;49.246;9.100;2023-07-13T08:28:31;98854.16;;;29.65;nan
14120;BME280;7138;49.246;9.100;2023-07-13T08:31:01;98845.19;;;29.66;nan
14120;BME280;7138;49.246;9.100;2023-07-13T08:33:27;98850.06;;;29.72;nan
14120;BME280;7138;49.246;9.100;2023-07-13T08:35:53;98855.41;;;29.72;nan
14120;BME280;7138;49.246;9.100;2023-07-13T08:38:19;98856.09;;;29.63;nan
14120;BME280;7138;49.246;9.100;2023-07-13T08:40:52;98847.16;;;29.75;nan
14120;BME280;7138;49.246;9.100;2023-07-13T08:43:23;98842.44;;;29.78;nan
14120;BME280;7138;49.246;9.100;2023-07-13T08:45:58;98850.72;;;29.87;nan
14120;BME280;7138;49.246;9.100;2023-07-13T08:48:30;98850.63;;;29.88;nan
14120;BME280;7138;49.246;9.100;2023-07-13T08:51:02;98850.31;;;29.80;nan
14120;BME280;7138;49.246;9.100;2023-07-13T08:53:36;98853.91;;;29.68;nan
14120;BME280;7138;49.246;9.100;2023-07-13T08:56:10;98846.88;;;29.67;nan
14120;BME280;7138;49.246;9.100;2023-07-13T08:58:39;98849.53;;;29.67;nan
14120;BME280;7138;49.246;9.100;2023-07-13T09:01:17;98854.16;;;29.65;nan
14120;BME280;7138;49.246;9.100;2023-07-13T09:03:55;98849.41;;;29.57;nan
14120;BME280;7138;49.246;9.100;2023-07-13T09:06:40;98852.97;;;29.69;nan
14120;BME280;7138;49.246;9.100;2023-07-13T09:09:22;98851.16;;;29.80;nan
14120;BME280;7138;49.246;9.100;2023-07-13T09:11:58;98866.69;;;29.75;nan
14120;BME280;7138;49.246;9.100;2023-07-13T09:14:42;98865.78;;;29.64;nan
14120;BME280;7138;49.246;9.100;2023-07-13T09:17:18;98858.00;;;29.61;nan
14120;BME280;7138;49.246;9.100;2023-07-13T09:19:53;98850.13;;;29.59;nan
14120;BME280;7138;49.246;9.100;2023-07-13T09:22:23;98855.69;;;29.56;nan
14120;BME280;7138;49.246;9.100;2023-07-13T09:25:01;98857.19;;;29.60;nan
14120;BME280;7138;49.246;9.100;2023-07-13T09:27:34;98855.09;;;29.64;nan
14120;BME280;7138;49.246;9.100;2023-07-13T09:30:23;98854.88;;;29.67;nan
14120;BME280;7138;49.246;9.100;2023-07-13T09:32:53;98855.47;;;29.59;nan
14120;BME280;7138;49.246;9.100;2023-07-13T09:35:24;98854.38;;;29.62;nan
14120;BME280;7138;49.246;9.100;2023-07-13T09:37:57;98861.19;;;29.66;nan
14120;BME280;7138;49.246;9.100;2023-07-13T09:40:29;98865.44;;;29.68;nan
14120;BME280;7138;49.246;9.100;2023-07-13T09:42:58;98863.97;;;29.64;nan
14120;BME280;7138;49.246;9.100;2023-07-13T09:45:29;98856.31;;;29.60;nan
14120;BME280;7138;49.246;9.100;2023-07-13T09:48:05;98852.44;;;29.64;nan
14120;BME280;7138;49.246;9.100;2023-07-13T09:50:32;98853.28;;;29.64;nan
14120;BME280;7138;49.246;9.100;2023-07-13T09:52:58;98855.97;;;29.64;nan
14120;BME280;7138;49.246;9.100;2023-07-13T09:55:33;98854.75;;;29.57;nan
14120;BME280;7138;49.246;9.100;2023-07-13T09:58:04;98858.53;;;29.66;nan
14120;BME280;7138;49.246;9.100;2023-07-13T10:00:31;98855.09;;;29.64;nan
14120;BME280;7138;49.246;9.100;2023-07-13T10:03:03;98861.81;;;29.69;nan
14120;BME280;7138;49.246;9.100;2023-07-13T10:05:39;98841.28;;;29.59;nan
14120;BME280;7138;49.246;9.100;2023-07-13T10:08:05;98849.53;;;29.56;nan
14120;BME280;7138;49.246;9.100;2023-07-13T10:10:34;98852.44;;;29.64;nan
14120;BME280;7138;49.246;9.100;2023-07-13T10:13:02;98854.28;;;29.63;nan
14120;BME280;7138;49.246;9.100;2023-07-13T10:15:31;98854.16;;;29.65;nan
14120;BME280;7138;49.246;9.100;2023-07-13T10:17:58;98847.97;;;29.64;nan
14120;BME280;7138;49.246;9.100;2023-07-13T10:20:27;98850.56;;;29.77;nan
14120;BME280;7138;49.246;9.100;2023-07-13T10:22:59;98854.03;;;29.90;nan
14120;BME280;7138;49.246;9.100;2023-07-13T10:25:33;98847.25;;;29.97;nan
14120;BME280;7138;49.246;9.100;2023-07-13T10:28:11;98855.50;;;29.94;nan
14120;BME280;7138;49.246;9.100;2023-07-13T10:30:46;98849.41;;;29.92;nan
14120;BME280;7138;49.246;9.100;2023-07-13T10:33:13;98843.72;;;29.97;nan
14120;BME280;7138;49.246;9.100;2023-07-13T10:35:43;98843.75;;;30.08;nan
14120;BME280;7138;49.246;9.100;2023-07-13T10:38:15;98844.59;;;30.19;nan
14120;BME280;7138;49.246;9.100;2023-07-13T10:40:53;98848.84;;;30.11;nan
14120;BME280;7138;49.246;9.100;2023-07-13T10:43:28;98848.91;;;29.87;nan
14120;BME280;7138;49.246;9.100;2023-07-13T10:46:00;98844.03;;;29.81;nan
14120;BME280;7138;49.246;9.100;2023-07-13T10:48:28;98853.22;;;29.77;nan
14120;BME280;7138;49.246;9.100;2023-07-13T10:50:57;98856.34;;;29.71;nan
14120;BME280;7138;49.246;9.100;2023-07-13T10:53:30;98857.53;;;29.67;nan
14120;BME280;7138;49.246;9.100;2023-07-13T10:56:00;98852.22;;;29.67;nan
14120;BME280;7138;49.246;9.100;2023-07-13T10:58:32;98841.25;;;29.83;nan
14120;BME280;7138;49.246;9.100;2023-07-13T11:01:09;98838.88;;;29.91;nan
14120;BME280;7138;49.246;9.100;2023-07-13T11:03:38;98839.88;;;29.77;nan
14120;BME280;7138;49.246;9.100;2023-07-13T11:06:29;98846.97;;;29.89;nan
14120;BME280;7138;49.246;9.100;2023-07-13T11:09:19;98842.97;;;29.95;nan
14120;BME280;7138;49.246;9.100;2023-07-13T11:11:56;98840.06;;;29.87;nan
14120;BME280;7138;49.246;9.100;2023-07-13T11:14:34;98831.03;;;29.76;nan
14120;BME280;7138;49.246;9.100;2023-07-13T11:17:33;98838.28;;;29.63;nan
14120;BME280;7138;49.246;9.100;2023-07-13T11:20:21;98823.94;;;29.53;nan
14120;BME280;7138;49.246;9.100;2023-07-13T11:22:51;98827.19;;;29.46;nan
14120;BME280;7138;49.246;9.100;2023-07-13T11:25:29;98822.84;;;29.45;nan
14120;BME280;7138;49.246;9.100;2023-07-13T11:28:22;98829.00;;;29.45;nan
14120;BME280;7138;49.246;9.100;2023-07-13T11:30:59;98826.91;;;29.38;nan
14120;BME280;7138;49.246;9.100;2023-07-13T11:33:31;98815.00;;;29.31;nan
14120;BME280;7138;49.246;9.100;2023-07-13T11:36:15;98820.34;;;29.31;nan
14120;BME280;7138;49.246;9.100;2023-07-13T11:38:45;98820.88;;;29.36;nan
14120;BME280;7138;49.246;9.100;2023-07-13T11:41:17;98818.19;;;29.36;nan
14120;BME280;7138;49.246;9.100;2023-07-13T11:43:45;98816.75;;;29.43;nan
14120;BME280;7138;49.246;9.100;2023-07-13T11:46:15;98823.63;;;29.34;nan
14120;BME280;7138;49.246;9.100;2023-07-13T11:48:42;98818.56;;;29.18;nan
14120;BME280;7138;49.246;9.100;2023-07-13T11:51:21;98817.09;;;29.14;nan
14120;BME280;7138;49.246;9.100;2023-07-13T11:53:52;98811.16;;;29.11;nan
14120;BME280;7138;49.246;9.100;2023-07-13T11:56:19;98824.28;;;29.01;nan
14120;BME280;7138;49.246;9.100;2023-07-13T11:58:49;98827.63;;;28.92;nan
14120;BME280;7138;49.246;9.100;2023-07-13T12:01:22;98825.31;;;28.88;nan
14120;BME280;7138;49.246;9.100;2023-07-13T12:03:49;98816.56;;;28.86;nan
14120;BME280;7138;49.246;9.100;2023-07-13T12:06:27;98815.03;;;28.94;nan
14120;BME280;7138;49.246;9.100;2023-07-13T12:08:58;98815.84;;;29.07;nan
14120;BME280;7138;49.246;9.100;2023-07-13T12:11:25;98819.81;;;29.02;nan
14120;BME280;7138;49.246;9.100;2023-07-13T12:13:51;98814.09;;;28.95;nan
14120;BME280;7138;49.246;9.100;2023-07-13T12:16:28;98819.53;;;28.94;nan
14120;BME280;7138;49.246;9.100;2023-07-13T12:18:56;98813.47;;;28.92;nan
14120;BME280;7138;49.246;9.100;2023-07-13T12:21:30;98814.72;;;28.99;nan
14120;BME280;7138;49.246;9.100;2023-07-13T12:23:58;98812.06;;;28.99;nan
14120;BME280;7138;49.246;9.100;2023-07-13T12:26:25;98826.00;;;29.02;nan
14120;BME280;7138;49.246;9.100;2023-07-13T12:28:54;98812.63;;;29.15;nan
14120;BME280;7138;49.246;9.100;2023-07-13T12:31:32;98814.50;;;29.25;nan
14120;BME280;7138;49.246;9.100;2023-07-13T12:34:02;98812.97;;;29.34;nan
14120;BME280;7138;49.246;9.100;2023-07-13T12:36:35;98820.09;;;29.34;nan
14120;BME280;7138;49.246;9.100;2023-07-13T12:39:14;98806.31;;;29.40;nan
14120;BME280;7138;49.246;9.100;2023-07-13T12:41:40;98816.72;;;29.32;nan
14120;BME280;7138;49.246;9.100;2023-07-13T12:44:11;98821.97;;;29.20;nan
14120;BME280;7138;49.246;9.100;2023-07-13T12:46:38;98821.00;;;29.21;nan
14120;BME280;7138;49.246;9.100;2023-07-13T12:49:07;98815.13;;;29.29;nan
14120;BME280;7138;49.246;9.100;2023-07-13T12:51:33;98814.94;;;29.43;nan
14120;BME280;7138;49.246;9.100;2023-07-13T12:54:16;98818.78;;;29.63;nan
14120;BME280;7138;49.246;9.100;2023-07-13T12:56:43;98816.97;;;29.74;nan
14120;BME280;7138;49.246;9.100;2023-07-13T12:59:18;98829.97;;;29.79;nan
14120;BME280;7138;49.246;9.100;2023-07-13T13:01:48;98822.19;;;29.76;nan
14120;BME280;7138;49.246;9.100;2023-07-13T13:04:15;98815.03;;;29.76;nan
14120;BME280;7138;49.246;9.100;2023-07-13T13:06:42;98827.88;;;29.71;nan
14120;BME280;7138;49.246;9.100;2023-07-13T13:09:14;98820.09;;;29.57;nan
14120;BME280;7138;49.246;9.100;2023-07-13T13:11:41;98827.41;;;29.43;nan
14120;BME280;7138;49.246;9.100;2023-07-13T13:14:08;98825.34;;;29.35;nan
14120;BME280;7138;49.246;9.100;2023-07-13T13:16:38;98824.94;;;29.28;nan
14120;BME280;7138;49.246;9.100;2023-07-13T13:19:14;98831.66;;;29.21;nan
14120;BME280;7138;49.246;9.100;2023-07-13T13:21:43;98832.47;;;29.11;nan
14120;BME280;7138;49.246;9.100;2023-07-13T13:24:15;98820.16;;;28.97;nan
14120;BME280;7138;49.246;9.100;2023-07-13T13:26:43;98833.47;;;28.97;nan
14120;BME280;7138;49.246;9.100;2023-07-13T13:29:14;98829.13;;;28.96;nan
14120;BME280;7138;49.246;9.100;2023-07-13T13:31:41;98831.84;;;29.07;nan
14120;BME280;7138;49.246;9.100;2023-07-13T13:34:09;98830.66;;;29.11;nan
14120;BME280;7138;49.246;9.100;2023-07-13T13:36:36;98820.94;;;29.10;nan
14120;BME280;7138;49.246;9.100;2023-07-13T13:39:02;98830.53;;;29.13;nan
14120;BME280;7138;49.246;9.100;2023-07-13T13:41:31;98834.66;;;29.17;nan
14120;BME280;7138;49.246;9.100;2023-07-13T13:43:57;98828.22;;;29.08;nan